Time;durP1;ratioP1;P1;durP2;ratioP2;P2;SDS_P1;SDS_P2;PMS_P1;PMS_P2;Temp;Humidity;BMP_temperature;BMP_pressure;BME280_temperature;BME280_humidity;BME280_pressure;Samples;Min_cycle;Max_cycle;Signal;HPM_P1;HPM_P2
2022/04/28 00:01:09;;;;;;;10.93;9.28;;;;;;;9.68;100.00;101321.19;1764199;81;21056;-63
2022/04/28 00:03:37;;;;;;;15.68;10.45;;;;;;;9.61;100.00;101324.80;1751173;82;21025;-63
2022/04/28 00:06:06;;;;;;;14.33;9.78;;;;;;;9.63;100.00;101327.75;1750898;82;21081;-64
2022/04/28 00:08:34;;;;;;;18.10;9.98;;;;;;;9.66;100.00;101328.55;1802051;80;21485;-64
2022/04/28 00:11:03;;;;;;;16.65;11.10;;;;;;;9.54;100.00;101327.14;1764239;81;21059;-64
2022/04/28 00:13:31;;;;;;;16.35;10.68;;;;;;;9.48;100.00;101327.31;1751008;82;21002;-64
2022/04/28 00:16:00;;;;;;;19.00;11.80;;;;;;;9.46;100.00;101321.37;1751230;82;21092;-65
2022/04/28 00:18:29;;;;;;;20.00;11.43;;;;;;;9.39;100.00;101324.09;1801797;79;21063;-63
2022/04/28 00:20:56;;;;;;;17.25;11.70;;;;;;;9.50;100.00;101329.40;1801802;80;21028;-64
2022/04/28 00:23:23;;;;;;;19.77;11.48;;;;;;;9.40;100.00;101327.50;1801805;80;21056;-64
2022/04/28 00:25:52;;;;;;;15.00;10.63;;;;;;;9.35;100.00;101323.78;1798816;80;21093;-64
2022/04/28 00:28:21;;;;;;;17.85;10.50;;;;;;;9.30;100.00;101325.61;1793391;80;21057;-64
2022/04/28 00:30:48;;;;;;;15.70;10.55;;;;;;;9.21;100.00;101329.71;1793112;80;20997;-64
2022/04/28 00:33:16;;;;;;;13.22;9.93;;;;;;;9.32;100.00;101335.85;1793149;80;21064;-64
2022/04/28 00:35:45;;;;;;;16.57;10.50;;;;;;;9.36;100.00;101331.87;1793325;80;21010;-63
2022/04/28 00:38:13;;;;;;;17.57;10.70;;;;;;;9.52;100.00;101335.34;1793131;80;21071;-64
2022/04/28 00:40:40;;;;;;;16.67;10.20;;;;;;;9.37;100.00;101334.86;1793279;80;21021;-63
2022/04/28 00:43:23;;;;;;;15.55;9.58;;;;;;;9.28;100.00;101335.53;1793047;80;21081;-63
2022/04/28 00:45:51;;;;;;;14.47;9.28;;;;;;;9.12;100.00;101336.34;1793025;80;20990;-63
2022/04/28 00:51:08;;;;;;;13.03;9.10;;;;;;;9.07;100.00;101327.48;1793034;80;21081;-64
2022/04/28 00:53:46;;;;;;;15.20;9.58;;;;;;;9.28;100.00;101329.94;1793438;80;21036;-64
2022/04/28 00:56:13;;;;;;;14.45;9.05;;;;;;;9.18;100.00;101328.48;1793003;80;21029;-63
2022/04/28 00:58:42;;;;;;;13.80;9.35;;;;;;;9.14;100.00;101329.45;1793437;79;20993;-63
2022/04/28 01:01:11;;;;;;;15.95;10.15;;;;;;;9.01;100.00;101329.75;1792934;79;21052;-63
2022/04/28 01:03:40;;;;;;;14.07;10.03;;;;;;;9.10;100.00;101328.67;1793221;80;21017;-63
2022/04/28 01:06:08;;;;;;;15.38;9.98;;;;;;;9.19;100.00;101326.34;1793066;79;21041;-63
2022/04/28 01:08:37;;;;;;;13.50;9.35;;;;;;;9.07;100.00;101326.20;1793015;79;21124;-64
2022/04/28 01:11:05;;;;;;;14.73;8.83;;;;;;;9.17;100.00;101327.66;1793239;79;20989;-64
2022/04/28 01:13:36;;;;;;;13.98;9.65;;;;;;;8.99;100.00;101323.81;1792591;79;21005;-63
2022/04/28 01:16:07;;;;;;;16.27;11.15;;;;;;;8.96;100.00;101322.62;1791993;79;21001;-63
2022/04/28 01:18:36;;;;;;;17.40;11.75;;;;;;;8.90;100.00;101321.90;1793039;80;21060;-64
2022/04/28 01:21:06;;;;;;;17.65;11.05;;;;;;;8.80;100.00;101319.56;1793071;80;21017;-64
2022/04/28 01:23:37;;;;;;;16.67;10.82;;;;;;;8.84;100.00;101325.48;1793197;80;21005;-64
2022/04/28 01:26:05;;;;;;;15.98;10.78;;;;;;;9.87;100.00;101320.23;1792939;79;21068;-63
2022/04/28 01:28:34;;;;;;;16.02;11.05;;;;;;;9.11;100.00;101325.69;1793207;80;21013;-63
2022/04/28 01:31:06;;;;;;;21.55;12.98;;;;;;;8.92;100.00;101335.55;1793154;80;21137;-63
2022/04/28 01:33:37;;;;;;;17.12;11.83;;;;;;;8.88;100.00;101329.66;1791838;79;21037;-64
2022/04/28 01:36:07;;;;;;;18.45;11.60;;;;;;;8.91;100.00;101328.73;1792977;80;21474;-64
2022/04/28 01:38:34;;;;;;;15.00;9.45;;;;;;;8.76;100.00;101330.79;1792985;80;21025;-63
2022/04/28 01:41:03;;;;;;;13.35;9.48;;;;;;;8.78;100.00;101327.75;1793044;80;21009;-63
2022/04/28 01:43:31;;;;;;;13.48;8.85;;;;;;;8.72;100.00;101328.30;1793026;80;21029;-63
2022/04/28 01:46:02;;;;;;;17.32;8.90;;;;;;;8.93;100.00;101332.95;1750613;81;21079;-63
2022/04/28 01:48:40;;;;;;;13.83;9.23;;;;;;;8.58;100.00;101323.06;1722642;83;21062;-63
2022/04/28 01:56:44;;;;;;;16.40;9.53;;;;;;;8.57;100.00;101321.81;1751976;82;21072;-63
2022/04/28 01:59:14;;;;;;;12.10;8.85;;;;;;;8.50;100.00;101317.72;1752144;82;21044;-63
2022/04/28 02:01:58;;;;;;;14.80;8.78;;;;;;;8.52;100.00;101323.20;1751109;82;21072;-63
2022/04/28 02:04:27;;;;;;;11.10;8.53;;;;;;;8.46;100.00;101325.08;1753625;81;21092;-63
2022/04/28 02:06:56;;;;;;;12.18;8.78;;;;;;;8.56;100.00;101327.39;1753821;81;21063;-63
2022/04/28 02:09:24;;;;;;;11.33;8.13;;;;;;;8.54;100.00;101326.58;1753533;82;21048;-63
2022/04/28 02:11:53;;;;;;;11.65;8.75;;;;;;;8.54;100.00;101322.73;1753636;81;21028;-63
2022/04/28 02:14:26;;;;;;;12.70;8.50;;;;;;;8.50;100.00;101330.09;1713084;82;21056;-63
2022/04/28 02:17:19;;;;;;;13.30;8.58;;;;;;;8.54;100.00;101327.03;1753473;82;21563;-63
2022/04/28 02:19:49;;;;;;;11.90;7.85;;;;;;;8.39;100.00;101328.16;1753843;81;21060;-63
2022/04/28 02:22:17;;;;;;;11.15;7.90;;;;;;;8.49;100.00;101333.97;1753574;82;21044;-63
2022/04/28 02:24:50;;;;;;;12.78;8.08;;;;;;;8.42;100.00;101337.95;1753762;82;21020;-63
2022/04/28 02:27:18;;;;;;;12.73;8.38;;;;;;;8.14;100.00;101345.80;1753673;81;20977;-63
2022/04/28 02:29:47;;;;;;;10.55;8.13;;;;;;;8.06;100.00;101344.67;1753634;82;21040;-63
2022/04/28 02:32:14;;;;;;;12.47;8.23;;;;;;;8.97;100.00;101344.00;1753657;82;21063;-63
2022/04/28 02:34:43;;;;;;;13.90;8.40;;;;;;;8.20;100.00;101344.39;1753650;82;20997;-63
2022/04/28 02:37:10;;;;;;;13.50;8.83;;;;;;;8.14;100.00;101341.95;1753379;82;21040;-63
2022/04/28 02:39:38;;;;;;;12.88;8.45;;;;;;;8.18;100.00;101342.30;1753525;82;21052;-63
2022/04/28 02:42:07;;;;;;;13.83;9.30;;;;;;;8.22;100.00;101349.05;1753718;81;21036;-64
2022/04/28 02:44:34;;;;;;;15.28;9.45;;;;;;;8.21;100.00;101350.78;1753749;81;21032;-63
2022/04/28 02:47:03;;;;;;;16.12;9.33;;;;;;;8.21;100.00;101352.06;1753735;81;21052;-63
2022/04/28 02:49:32;;;;;;;12.63;8.65;;;;;;;8.73;100.00;101344.96;1753704;81;21001;-63
2022/04/28 02:52:03;;;;;;;13.48;9.05;;;;;;;8.39;100.00;101357.25;1752921;82;21081;-63
2022/04/28 02:54:31;;;;;;;11.43;8.73;;;;;;;8.37;100.00;101353.00;1753730;82;21048;-63
2022/04/28 02:56:58;;;;;;;11.68;8.50;;;;;;;8.38;100.00;101356.83;1753511;81;21052;-63
2022/04/28 02:59:26;;;;;;;13.03;8.88;;;;;;;8.50;100.00;101352.35;1753593;81;21088;-63
2022/04/28 03:01:57;;;;;;;12.20;8.40;;;;;;;8.40;100.00;101360.20;1753377;82;21068;-63
2022/04/28 03:04:25;;;;;;;16.17;9.50;;;;;;;8.57;100.00;101354.73;1753473;81;21072;-63
2022/04/28 03:12:29;;;;;;;15.50;9.15;;;;;;;8.53;100.00;101351.83;1753651;82;21040;-63
2022/04/28 03:14:59;;;;;;;16.02;9.53;;;;;;;8.54;100.00;101350.12;1752443;82;21067;-63
2022/04/28 03:17:28;;;;;;;17.48;9.93;;;;;;;9.03;100.00;101353.67;1753878;81;21047;-63
2022/04/28 03:19:56;;;;;;;17.67;9.38;;;;;;;8.65;100.00;101352.44;1753509;82;21037;-63
2022/04/28 03:22:26;;;;;;;13.60;8.98;;;;;;;8.68;100.00;101354.92;1753638;82;21553;-63
2022/04/28 03:24:55;;;;;;;14.53;8.55;;;;;;;8.71;100.00;101359.55;1753902;82;21040;-63
2022/04/28 03:27:23;;;;;;;15.00;9.50;;;;;;;8.75;100.00;101360.34;1753874;81;21098;-64
2022/04/28 03:29:50;;;;;;;15.83;9.45;;;;;;;8.80;100.00;101360.64;1731627;81;21083;-64
2022/04/28 03:32:18;;;;;;;15.05;9.40;;;;;;;8.88;100.00;101361.76;1759257;81;21095;-63
2022/04/28 03:34:47;;;;;;;17.12;10.00;;;;;;;9.01;100.00;101368.27;1759260;81;21095;-63
2022/04/28 03:37:16;;;;;;;17.42;9.80;;;;;;;9.21;100.00;101369.53;1732272;81;22632;-64
2022/04/28 03:39:46;;;;;;;15.05;9.65;;;;;;;9.32;100.00;101373.95;1759165;81;21017;-63
2022/04/28 03:42:17;;;;;;;17.00;9.35;;;;;;;9.35;100.00;101371.31;1759552;81;21012;-63
2022/04/28 03:44:44;;;;;;;16.17;9.75;;;;;;;9.43;100.00;101378.39;1759481;81;21504;-64
2022/04/28 03:47:11;;;;;;;13.85;9.23;;;;;;;9.59;100.00;101384.40;1759513;81;21056;-63
2022/04/28 03:49:41;;;;;;;14.60;10.35;;;;;;;9.71;100.00;101383.24;1759208;81;21095;-63
2022/04/28 03:52:10;;;;;;;13.65;9.33;;;;;;;9.82;100.00;101383.81;1742747;81;21548;-64
2022/04/28 03:54:37;;;;;;;15.95;10.23;;;;;;;9.94;100.00;101385.22;1756383;82;21501;-64
2022/04/28 03:57:04;;;;;;;16.25;9.58;;;;;;;10.13;100.00;101382.97;1726354;82;21524;-64
2022/04/28 03:59:32;;;;;;;15.38;8.98;;;;;;;10.21;100.00;101385.71;1756120;81;21040;-64
2022/04/28 04:02:19;;;;;;;14.55;8.73;;;;;;;10.37;100.00;101386.15;1756368;81;21484;-64
2022/04/28 04:04:47;;;;;;;12.20;8.70;;;;;;;10.61;100.00;101385.03;1756159;82;21591;-64
2022/04/28 04:07:14;;;;;;;14.78;9.05;;;;;;;10.60;100.00;101389.77;1756125;81;21523;-63
2022/04/28 04:09:42;;;;;;;18.32;9.05;;;;;;;10.83;100.00;101390.38;1756198;82;21547;-63
2022/04/28 04:12:14;;;;;;;14.07;9.48;;;;;;;12.31;100.00;101390.10;1756166;81;21028;-64
2022/04/28 04:14:50;;;;;;;21.55;10.68;;;;;;;12.40;100.00;101391.03;1751905;82;21546;-64
2022/04/28 04:17:18;;;;;;;15.95;10.32;;;;;;;12.10;100.00;101398.63;1742890;82;21068;-65
2022/04/28 04:19:45;;;;;;;20.70;12.63;;;;;;;12.08;100.00;101401.25;1726426;82;21013;-65
2022/04/28 04:22:15;;;;;;;17.95;10.63;;;;;;;11.92;100.00;101398.41;1756243;81;21008;-66
2022/04/28 04:24:42;;;;;;;14.03;9.03;;;;;;;12.16;100.00;101396.65;1756072;81;21552;-66
2022/04/28 04:27:14;;;;;;;13.85;8.20;;;;;;;12.53;100.00;101391.44;1746139;81;21076;-65
2022/04/28 04:29:49;;;;;;;15.55;8.90;;;;;;;12.92;100.00;101401.11;1696831;82;21471;-65
2022/04/28 04:32:25;;;;;;;13.38;8.15;;;;;;;12.53;100.00;101409.52;1788960;80;21010;-65
2022/04/28 04:34:59;;;;;;;12.43;7.67;;;;;;;12.98;100.00;101401.33;1749240;81;21501;-66
2022/04/28 04:37:28;;;;;;;13.28;7.00;;;;;;;13.95;100.00;101411.53;1723693;83;21070;-65
2022/04/28 04:39:57;;;;;;;8.03;4.80;;;;;;;14.09;100.00;101411.79;1740172;82;21053;-65
2022/04/28 04:42:24;;;;;;;6.97;4.75;;;;;;;14.13;97.11;101417.64;1802538;78;20990;-64
2022/04/28 04:44:53;;;;;;;9.13;5.03;;;;;;;14.12;92.95;101410.34;1772790;79;21029;-65
2022/04/28 04:47:22;;;;;;;12.23;6.12;;;;;;;14.26;92.25;101412.78;1730968;82;21026;-64
2022/04/28 04:50:09;;;;;;;11.55;5.85;;;;;;;14.46;92.05;101415.77;1778039;80;21033;-64
2022/04/28 04:52:38;;;;;;;10.53;6.35;;;;;;;14.53;92.02;101420.57;1731682;81;20995;-65
2022/04/28 04:55:09;;;;;;;10.60;5.92;;;;;;;14.86;89.23;101419.10;1768182;80;20997;-65
2022/04/28 04:57:39;;;;;;;16.07;6.50;;;;;;;14.82;89.48;101427.04;1774525;80;21006;-65
2022/04/28 05:00:08;;;;;;;12.90;6.25;;;;;;;14.97;85.96;101418.14;1723456;82;21517;-64
2022/04/28 05:02:39;;;;;;;12.40;6.15;;;;;;;14.88;85.54;101421.16;1766624;80;20979;-65
2022/04/28 05:05:20;;;;;;;11.38;5.85;;;;;;;15.07;83.63;101419.38;1683969;80;21105;-65
2022/04/28 05:08:03;;;;;;;10.70;5.28;;;;;;;15.43;81.94;101424.98;1768303;78;21467;-64
2022/04/28 05:10:32;;;;;;;13.70;6.40;;;;;;;15.12;77.52;101423.87;1768413;80;21002;-66
2022/04/28 05:13:01;;;;;;;9.15;5.17;;;;;;;15.89;75.85;101430.45;1774475;80;21002;-64
2022/04/28 05:15:30;;;;;;;12.98;5.45;;;;;;;15.69;74.18;101428.83;1768323;80;21431;-64
2022/04/28 05:18:30;;;;;;;;;;;;;;;;;;;;;
2022/04/28 05:20:51;;;;;;;9.23;5.80;;;;;;;15.99;72.13;101438.14;1767589;80;21011;-64
2022/04/28 05:23:38;;;;;;;10.58;4.75;;;;;;;15.99;72.48;101437.31;1752681;80;21034;-64
2022/04/28 05:26:25;;;;;;;13.10;5.28;;;;;;;16.21;71.01;101439.63;1696474;84;21116;-64
2022/04/28 05:28:56;;;;;;;9.25;4.87;;;;;;;15.63;71.27;101447.31;1741056;81;21038;-64
2022/04/28 05:31:25;;;;;;;9.08;4.80;;;;;;;15.88;70.74;101443.53;1731622;81;21034;-64
2022/04/28 05:33:55;;;;;;;9.95;5.42;;;;;;;16.31;68.58;101433.02;1755776;80;21034;-64
2022/04/28 05:36:26;;;;;;;11.43;5.58;;;;;;;16.37;69.63;101439.66;1763079;80;21077;-64
2022/04/28 05:38:57;;;;;;;9.65;4.80;;;;;;;16.40;67.79;101444.67;1761263;81;21058;-64
2022/04/28 05:41:26;;;;;;;7.42;4.60;;;;;;;16.43;67.54;101449.72;1733638;81;21030;-64
2022/04/28 05:46:45;;;;;;;8.18;4.20;;;;;;;16.01;69.17;101444.09;1761409;81;21034;-64
2022/04/28 05:49:12;;;;;;;8.03;3.95;;;;;;;16.51;68.33;101445.41;1784034;80;21019;-65
2022/04/28 05:51:44;;;;;;;8.10;4.08;;;;;;;16.98;66.84;101445.41;1761504;81;21049;-64
2022/04/28 05:54:14;;;;;;;8.88;4.00;;;;;;;16.97;64.79;101443.75;1783976;80;20991;-64
2022/04/28 05:56:42;;;;;;;7.42;3.50;;;;;;;16.90;62.07;101450.20;1761478;81;21050;-64
2022/04/28 05:59:11;;;;;;;5.90;3.30;;;;;;;16.69;61.94;101451.38;1761780;81;20998;-64
2022/04/28 06:01:40;;;;;;;5.55;2.70;;;;;;;16.52;60.96;101451.80;1761271;81;21026;-63
2022/04/28 06:04:08;;;;;;;3.90;3.10;;;;;;;16.61;61.63;101445.29;1784135;80;21109;-64
2022/04/28 06:06:38;;;;;;;5.05;2.85;;;;;;;16.67;61.32;101444.95;1761228;81;21120;-64
2022/04/28 06:09:08;;;;;;;5.40;2.95;;;;;;;16.77;60.43;101451.80;1760545;80;21074;-64
2022/04/28 06:11:36;;;;;;;5.92;2.80;;;;;;;16.88;60.18;101464.23;1760376;81;21034;-64
2022/04/28 06:14:03;;;;;;;7.53;3.30;;;;;;;16.93;59.77;101455.25;1760724;81;21526;-64
2022/04/28 06:16:46;;;;;;;6.25;2.60;;;;;;;17.06;61.84;101456.69;1729573;81;21546;-64
2022/04/28 06:19:19;;;;;;;7.30;2.70;;;;;;;17.52;56.70;101459.75;1760678;80;21038;-64
2022/04/28 06:22:00;;;;;;;5.70;3.08;;;;;;;17.22;54.94;101465.78;1760494;81;21101;-64
2022/04/28 06:24:30;;;;;;;8.63;3.10;;;;;;;17.52;55.25;101467.09;1760831;81;21046;-65
2022/04/28 06:26:59;;;;;;;4.58;2.90;;;;;;;16.99;56.52;101470.95;1760462;81;21601;-64
2022/04/28 06:29:27;;;;;;;10.45;4.00;;;;;;;17.08;56.93;101468.32;1786108;79;21093;-65
2022/04/28 06:31:56;;;;;;;8.45;3.20;;;;;;;17.02;59.09;101467.73;1765453;80;21549;-64
2022/04/28 06:34:34;;;;;;;7.33;2.95;;;;;;;17.23;59.21;101471.34;1713746;84;21108;-64
2022/04/28 06:37:08;;;;;;;7.60;2.55;;;;;;;17.24;55.59;101466.53;1733872;83;21048;-64
2022/04/28 06:39:34;;;;;;;6.67;2.50;;;;;;;17.45;53.60;101460.55;1706964;83;21056;-66
2022/04/28 06:42:01;;;;;;;6.80;2.80;;;;;;;17.31;53.86;101468.31;1766444;81;21580;-63
2022/04/28 06:44:36;;;;;;;5.58;2.40;;;;;;;17.46;53.99;101462.23;1762021;80;21104;-64
2022/04/28 06:47:21;;;;;;;3.60;2.40;;;;;;;17.58;53.56;101471.11;1765521;81;21513;-64
2022/04/28 06:49:54;;;;;;;7.25;2.90;;;;;;;17.66;52.96;101465.42;1735852;81;21060;-64
2022/04/28 06:52:42;;;;;;;3.67;1.90;;;;;;;17.53;52.68;101464.02;1765558;81;21044;-64
2022/04/28 06:55:11;;;;;;;5.97;2.50;;;;;;;17.71;51.48;101468.14;1743661;82;21033;-64
2022/04/28 06:57:40;;;;;;;5.90;2.90;;;;;;;17.65;52.32;101466.37;1765713;80;21076;-64
2022/04/28 07:00:11;;;;;;;4.92;2.75;;;;;;;18.48;51.09;101467.45;1756858;81;21560;-64
2022/04/28 07:02:40;;;;;;;3.37;2.25;;;;;;;18.03;51.10;101470.64;1765126;81;21505;-64
2022/04/28 07:05:08;;;;;;;2.25;2.00;;;;;;;17.87;51.32;101469.88;1765641;80;21111;-64
2022/04/28 07:07:36;;;;;;;6.12;2.40;;;;;;;17.87;50.79;101464.67;1765860;81;21071;-64
2022/04/28 07:10:07;;;;;;;6.05;2.00;;;;;;;17.91;50.84;101476.11;1765582;81;21041;-63
2022/04/28 07:12:41;;;;;;;7.20;2.15;;;;;;;18.03;49.32;101477.16;1765712;81;21556;-64
2022/04/28 07:15:29;;;;;;;3.30;1.70;;;;;;;18.30;50.39;101477.70;1765555;81;21048;-64
2022/04/28 07:18:15;;;;;;;2.30;1.60;;;;;;;18.28;48.50;101475.66;1765833;81;21024;-64
2022/04/28 07:20:48;;;;;;;4.40;1.70;;;;;;;18.33;47.45;101474.90;1765682;81;21053;-63
2022/04/28 07:23:16;;;;;;;1.87;1.40;;;;;;;18.42;47.41;101478.26;1744096;82;21024;-64
2022/04/28 07:25:44;;;;;;;2.67;1.22;;;;;;;18.44;47.14;101479.00;1765373;80;21076;-64
2022/04/28 07:28:11;;;;;;;3.05;1.30;;;;;;;18.41;45.40;101476.12;1766365;81;21083;-64
2022/04/28 07:30:50;;;;;;;3.60;1.40;;;;;;;18.37;45.02;101485.06;1761582;80;21092;-63
2022/04/28 07:33:22;;;;;;;3.20;1.40;;;;;;;18.29;46.31;101479.48;1762572;80;21001;-65
2022/04/28 07:36:08;;;;;;;2.60;1.32;;;;;;;18.31;47.00;101484.14;1744939;82;21104;-64
2022/04/28 07:38:38;;;;;;;4.47;1.40;;;;;;;18.56;46.19;101482.62;1717842;81;21518;-64
2022/04/28 07:41:07;;;;;;;1.82;1.10;;;;;;;18.82;45.28;101479.72;1764457;81;21532;-64
2022/04/28 07:43:35;;;;;;;3.50;1.27;;;;;;;18.83;44.39;101478.77;1766600;80;22157;-65
2022/04/28 07:46:04;;;;;;;5.30;1.70;;;;;;;19.04;45.70;101484.41;1766655;81;21032;-65
2022/04/28 07:48:33;;;;;;;2.60;1.10;;;;;;;18.94;45.03;101481.55;1766403;81;21056;-65
2022/04/28 07:51:03;;;;;;;2.80;1.42;;;;;;;18.95;45.01;101476.68;1766538;81;21331;-64
2022/04/28 07:53:32;;;;;;;4.67;1.77;;;;;;;19.09;44.25;101471.88;1766432;81;21081;-63
2022/04/28 07:56:17;;;;;;;3.58;1.45;;;;;;;18.87;45.17;101469.81;1766656;81;21029;-63
2022/04/28 07:58:46;;;;;;;3.00;1.75;;;;;;;18.90;44.73;101463.59;1734177;82;21113;-64
2022/04/28 08:01:18;;;;;;;5.75;2.27;;;;;;;18.84;46.48;101459.59;1765596;80;21001;-64
2022/04/28 08:03:46;;;;;;;3.33;2.10;;;;;;;18.97;46.10;101465.67;1766490;81;21497;-65
2022/04/28 08:06:13;;;;;;;4.12;2.45;;;;;;;18.98;46.36;101458.23;1766664;81;21028;-64
2022/04/28 08:08:42;;;;;;;6.75;2.47;;;;;;;19.06;48.12;101454.27;1734859;82;21042;-63
2022/04/28 08:11:09;;;;;;;4.53;2.00;;;;;;;19.28;47.34;101455.88;1735062;83;21495;-63
2022/04/28 08:13:37;;;;;;;2.47;2.20;;;;;;;19.31;48.22;101454.83;1734842;83;21483;-63
2022/04/28 08:16:09;;;;;;;6.03;2.25;;;;;;;19.37;46.80;101453.95;1734268;83;21034;-63
2022/04/28 08:18:39;;;;;;;4.78;2.17;;;;;;;19.55;48.34;101454.98;1734871;83;21070;-63
2022/04/28 08:21:08;;;;;;;9.98;2.50;;;;;;;19.72;46.71;101457.31;1734531;82;21038;-65
2022/04/28 08:23:38;;;;;;;4.10;2.10;;;;;;;19.58;47.64;101454.77;1744526;82;21526;-63
2022/04/28 08:26:06;;;;;;;5.95;2.22;;;;;;;19.82;47.03;101465.37;1766742;80;21029;-64
2022/04/28 08:28:34;;;;;;;4.58;2.02;;;;;;;19.86;46.41;101460.30;1766496;81;21075;-64
2022/04/28 08:31:03;;;;;;;4.97;2.33;;;;;;;19.92;46.46;101449.91;1726424;82;21009;-64
2022/04/28 08:33:31;;;;;;;6.60;2.42;;;;;;;19.81;46.54;101455.39;1774712;81;21029;-64
2022/04/28 08:35:58;;;;;;;3.58;2.10;;;;;;;19.80;47.06;101456.80;1775062;80;21022;-64
2022/04/28 08:38:27;;;;;;;6.70;2.50;;;;;;;19.92;47.69;101436.36;1774781;80;21026;-64
2022/04/28 08:41:03;;;;;;;4.72;2.55;;;;;;;20.03;46.40;101453.08;1774916;81;21022;-64
2022/04/28 08:43:37;;;;;;;3.42;2.00;;;;;;;19.99;47.16;101449.39;1736607;81;21053;-64
2022/04/28 08:48:57;;;;;;;4.30;1.98;;;;;;;20.10;45.54;101441.27;1774912;79;21502;-64
2022/04/28 08:51:26;;;;;;;4.20;2.00;;;;;;;20.13;47.35;101451.50;1775073;79;21516;-64
2022/04/28 08:53:57;;;;;;;16.30;2.45;;;;;;;20.18;46.42;101445.02;1774705;81;21081;-64
2022/04/28 08:56:24;;;;;;;4.12;2.02;;;;;;;20.18;45.26;101450.24;1774792;81;21057;-64
2022/04/28 08:58:54;;;;;;;3.85;2.20;;;;;;;20.18;45.27;101450.72;1774924;81;21053;-64
2022/04/28 09:01:27;;;;;;;4.45;2.75;;;;;;;20.11;44.18;101450.29;1798412;79;20974;-64
2022/04/28 09:04:10;;;;;;;4.60;2.70;;;;;;;19.85;45.22;101449.50;1777600;79;21561;-64
2022/04/28 09:06:58;;;;;;;5.87;3.70;;;;;;;20.01;45.49;101440.97;1774793;79;21045;-63
2022/04/28 09:09:29;;;;;;;8.08;4.28;;;;;;;20.07;45.60;101446.22;1774922;81;21026;-63
2022/04/28 09:12:20;;;;;;;6.62;2.08;;;;;;;19.97;43.98;101443.87;1774852;81;20997;-64
2022/04/28 09:15:13;;;;;;;3.77;2.25;;;;;;;19.93;44.27;101437.19;1775039;81;21073;-63
2022/04/28 09:17:49;;;;;;;5.03;2.70;;;;;;;19.96;45.72;101437.82;1774832;79;21026;-63
2022/04/28 09:20:22;;;;;;;3.83;2.40;;;;;;;20.32;44.30;101434.91;1775023;80;20966;-63
2022/04/28 09:22:54;;;;;;;9.28;4.62;;;;;;;20.21;42.35;101440.89;1747344;81;21001;-63
2022/04/28 09:25:23;;;;;;;4.20;2.30;;;;;;;20.25;43.38;101442.80;1775283;79;21040;-64
2022/04/28 09:27:52;;;;;;;4.12;2.80;;;;;;;20.05;43.65;101438.95;1773846;79;21123;-64
2022/04/28 09:30:24;;;;;;;11.85;6.42;;;;;;;20.26;43.28;101437.95;1776093;79;21142;-64
2022/04/28 09:33:10;;;;;;;2.90;2.33;;;;;;;20.40;44.31;101431.75;1777592;79;21070;-64
2022/04/28 09:35:52;;;;;;;;;;;;;;;20.59;43.53;101434.73;1736463;81;20994;-64
2022/04/28 09:38:23;;;;;;;3.65;2.30;;;;;;;20.24;41.29;101441.62;1762785;80;20393;-64
2022/04/28 09:43:37;;;;;;;15.70;8.05;;;;;;;20.33;44.13;101425.27;1770002;81;21545;-63
2022/04/28 09:46:08;;;;;;;6.03;2.92;;;;;;;20.42;42.64;101436.40;1770081;81;21010;-63
2022/04/28 09:48:36;;;;;;;7.15;3.00;;;;;;;20.65;42.52;101428.23;1769766;80;21505;-64
2022/04/28 09:51:09;;;;;;;2.62;2.02;;;;;;;20.77;42.33;101433.89;1744369;81;21022;-63
2022/04/28 09:53:55;;;;;;;2.92;1.70;;;;;;;20.94;43.48;101426.11;1770024;81;21507;-63
2022/04/28 09:56:37;;;;;;;3.83;1.82;;;;;;;20.88;42.16;101427.86;1768573;81;21034;-63
2022/04/28 09:59:13;;;;;;;5.33;2.40;;;;;;;20.79;40.88;101433.78;1770157;80;21038;-63
2022/04/28 10:01:45;;;;;;;12.25;4.85;;;;;;;20.67;41.76;101433.37;1769936;81;21010;-63
2022/04/28 10:04:12;;;;;;;4.97;1.70;;;;;;;20.84;41.61;101425.11;1795599;80;21077;-63
2022/04/28 10:07:00;;;;;;;3.08;1.80;;;;;;;20.93;42.23;101420.52;1770155;81;20986;-63
2022/04/28 10:09:32;;;;;;;14.53;6.03;;;;;;;21.12;40.43;101430.95;1770010;81;21006;-63
2022/04/28 10:12:11;;;;;;;2.45;1.67;;;;;;;21.07;41.34;101429.16;1770301;80;21061;-63
2022/04/28 10:14:50;;;;;;;2.60;1.98;;;;;;;21.12;41.24;101420.47;1770678;80;21010;-63
2022/04/28 10:17:41;;;;;;;9.78;5.97;;;;;;;21.11;39.33;101427.98;1769912;81;21013;-64
2022/04/28 10:20:11;;;;;;;2.85;1.80;;;;;;;21.09;39.94;101426.78;1768797;80;21518;-63
2022/04/28 10:22:47;;;;;;;5.62;3.33;;;;;;;21.38;41.10;101425.91;1769394;80;21066;-63
2022/04/28 10:34:13;;;;;;;4.50;1.87;;;;;;;20.96;38.70;101436.47;1756070;82;21493;-65
2022/04/28 10:36:57;;;;;;;4.45;1.60;;;;;;;21.11;37.97;101435.36;1755960;80;21001;-63
2022/04/28 10:39:42;;;;;;;3.42;1.75;;;;;;;20.94;37.94;101435.27;1727610;82;21077;-64
2022/04/28 10:42:22;;;;;;;3.72;1.80;;;;;;;21.16;38.49;101429.28;1755927;82;21074;-64
2022/04/28 10:44:54;;;;;;;5.40;1.70;;;;;;;21.32;39.53;101428.98;1725797;81;21035;-64
2022/04/28 10:47:39;;;;;;;1.87;1.42;;;;;;;21.77;39.42;101433.02;1755966;80;21479;-64
2022/04/28 10:50:26;;;;;;;5.42;1.87;;;;;;;21.76;39.01;101423.98;1756090;82;21002;-64
2022/04/28 10:53:02;;;;;;;2.62;1.87;;;;;;;21.74;37.91;101435.06;1755809;81;21070;-64
2022/04/28 10:55:42;;;;;;;3.27;1.62;;;;;;;21.62;36.96;101439.94;1755986;82;21019;-64
2022/04/28 10:58:23;;;;;;;4.00;1.90;;;;;;;21.86;36.90;101430.64;1755819;82;20983;-65
2022/04/28 11:01:06;;;;;;;7.28;1.80;;;;;;;21.85;37.39;101426.37;1755942;82;21038;-64
2022/04/28 11:04:02;;;;;;;;;;;;;;;;;;;;;
2022/04/28 11:06:27;;;;;;;2.90;1.52;;;;;;;21.87;36.53;101431.84;1751087;82;21022;-64
2022/04/28 11:08:56;;;;;;;5.40;1.70;;;;;;;21.76;36.77;101426.13;1750384;82;21045;-64
2022/04/28 11:11:29;;;;;;;3.08;1.70;;;;;;;22.12;38.06;101412.88;1755186;80;21550;-64
2022/04/28 11:13:59;;;;;;;3.83;1.63;;;;;;;22.20;37.25;101412.66;1785029;80;21067;-64
2022/04/28 11:16:27;;;;;;;2.47;1.62;;;;;;;22.08;37.89;101411.45;1787576;80;21026;-63
2022/04/28 11:18:56;;;;;;;2.80;1.60;;;;;;;22.04;36.85;101416.58;1787382;80;21057;-64
2022/04/28 11:21:25;;;;;;;2.67;1.80;;;;;;;22.07;37.87;101415.05;1755439;80;20995;-64
2022/04/28 11:23:53;;;;;;;6.42;1.47;;;;;;;21.74;38.10;101414.92;1787486;80;20994;-64
2022/04/28 11:26:29;;;;;;;3.90;1.62;;;;;;;21.75;37.13;101423.13;1786949;80;21022;-63
2022/04/28 11:29:10;;;;;;;2.33;1.50;;;;;;;21.79;37.20;101415.39;1784417;80;21545;-64
2022/04/28 11:31:53;;;;;;;3.72;1.60;;;;;;;22.08;36.47;101407.06;1787281;80;21034;-63
2022/04/28 11:34:18;;;;;;;6.12;1.57;;;;;;;22.05;37.78;101404.67;1785410;80;21022;-63
2022/04/28 11:36:45;;;;;;;4.62;1.98;;;;;;;22.07;37.54;101402.77;1787444;80;20999;-63
2022/04/28 11:39:14;;;;;;;5.95;1.90;;;;;;;22.03;37.01;101407.06;1787404;80;21506;-63
2022/04/28 11:41:43;;;;;;;3.05;1.60;;;;;;;22.12;35.94;101398.00;1787495;80;21462;-64
2022/04/28 11:44:16;;;;;;;4.45;1.50;;;;;;;22.17;36.02;101399.77;1787525;80;21007;-63
2022/04/28 11:46:49;;;;;;;3.40;1.70;;;;;;;22.15;36.64;101397.75;1787822;79;21006;-64
2022/04/28 11:49:18;;;;;;;3.08;1.87;;;;;;;22.42;38.46;101376.03;1787665;80;20975;-64
2022/04/28 11:51:46;;;;;;;3.08;2.12;;;;;;;22.49;38.41;101392.47;1787731;80;21457;-65
2022/04/28 11:54:26;;;;;;;3.98;1.80;;;;;;;22.67;37.60;101387.98;1787614;80;21029;-63
2022/04/28 11:57:11;;;;;;;2.15;1.65;;;;;;;22.46;35.88;101390.56;1787698;80;21041;-63
2022/04/28 11:59:41;;;;;;;5.17;1.82;;;;;;;22.38;35.28;101378.92;1787744;80;21522;-63
2022/04/28 12:02:32;;;;;;;2.92;1.55;;;;;;;22.40;35.54;101382.70;1787776;80;21003;-63
2022/04/28 12:05:06;;;;;;;4.65;1.70;;;;;;;22.34;35.13;101377.95;1787595;80;21082;-64
2022/04/28 12:07:35;;;;;;;5.47;1.87;;;;;;;22.89;35.62;101381.81;1787862;80;21086;-63
2022/04/28 12:15:39;;;;;;;4.15;1.85;;;;;;;22.52;36.11;101375.16;1787616;80;21018;-64
2022/04/28 12:21:06;;;;;;;3.87;1.85;;;;;;;22.77;35.68;101363.51;1706525;80;21015;-64
2022/04/28 12:23:42;;;;;;;7.25;2.02;;;;;;;22.71;35.95;101364.02;1787825;80;21482;-64